Time;durP1;ratioP1;P1;durP2;ratioP2;P2;SDS_P1;SDS_P2;PMS_P1;PMS_P2;Temp;Humidity;BMP_temperature;BMP_pressure;BME280_temperature;BME280_humidity;BME280_pressure;Samples;Min_cycle;Max_cycle;Signal;HPM_P1;HPM_P2
2022/02/07 00:00:12;;;;;;;4.95;0.90;;;14.20;67.50;;;;;;5034542;28;20409;-79
2022/02/07 00:03:04;;;;;;;4.22;1.23;;;14.20;67.40;;;;;;5018724;28;20028;-79
2022/02/07 00:05:31;;;;;;;3.58;1.00;;;14.10;67.50;;;;;;5020781;28;20057;-78
2022/02/07 00:07:57;;;;;;;3.88;1.20;;;14.10;67.50;;;;;;5033301;28;20025;-79
2022/02/07 00:10:23;;;;;;;6.35;1.15;;;14.10;67.50;;;;;;5034293;28;20026;-78
2022/02/07 00:12:49;;;;;;;4.90;1.10;;;14.10;67.50;;;;;;5034555;28;20029;-79
2022/02/07 00:15:18;;;;;;;6.28;1.20;;;14.10;67.50;;;;;;5032799;28;20029;-78
2022/02/07 00:17:45;;;;;;;6.93;1.40;;;14.10;67.40;;;;;;5034353;28;20064;-78
2022/02/07 00:20:16;;;;;;;7.72;1.55;;;14.10;67.40;;;;;;5032792;28;20040;-78
2022/02/07 00:22:42;;;;;;;5.55;1.30;;;14.10;67.40;;;;;;5016636;28;20025;-77
2022/02/07 00:25:08;;;;;;;5.85;1.30;;;14.00;67.40;;;;;;5034129;28;20402;-78
2022/02/07 00:27:34;;;;;;;5.88;1.48;;;14.00;67.30;;;;;;5032927;28;20470;-78
2022/02/07 00:30:01;;;;;;;6.45;1.30;;;14.10;67.30;;;;;;5033873;28;20029;-77
2022/02/07 00:32:26;;;;;;;6.93;1.38;;;14.00;67.40;;;;;;5032819;28;20022;-78
2022/02/07 00:34:52;;;;;;;5.20;1.08;;;14.00;67.40;;;;;;5032466;28;20029;-79
2022/02/07 00:37:17;;;;;;;7.10;1.42;;;14.00;67.30;;;;;;5034003;28;20425;-77
2022/02/07 00:39:51;;;;;;;5.68;1.40;;;14.00;67.30;;;;;;5016261;28;20402;-78
2022/02/07 00:42:29;;;;;;;5.93;1.15;;;14.00;67.20;;;;;;5016091;28;20021;-78
2022/02/07 00:44:56;;;;;;;7.80;1.40;;;14.00;67.30;;;;;;5016228;28;20021;-78
2022/02/07 00:47:22;;;;;;;6.07;1.45;;;14.00;67.30;;;;;;5015927;28;20406;-78
2022/02/07 00:49:47;;;;;;;4.22;1.15;;;14.00;67.40;;;;;;5033716;28;20104;-79
2022/02/07 00:52:13;;;;;;;4.03;1.50;;;13.90;67.60;;;;;;5019443;28;20478;-77
2022/02/07 00:54:38;;;;;;;5.68;1.27;;;13.90;67.70;;;;;;5033596;28;20049;-77
2022/02/07 00:57:05;;;;;;;5.43;1.20;;;13.90;67.70;;;;;;5096265;23;20070;-79
2022/02/07 00:59:30;;;;;;;5.43;1.40;;;13.90;67.90;;;;;;5054962;28;20393;-78
2022/02/07 01:01:56;;;;;;;5.05;1.30;;;13.80;67.80;;;;;;5072138;28;20028;-77
2022/02/07 01:04:21;;;;;;;5.20;1.17;;;13.80;67.80;;;;;;5072231;28;20021;-77
2022/02/07 01:06:47;;;;;;;5.35;1.33;;;13.80;67.90;;;;;;5067929;28;20075;-77
2022/02/07 01:09:17;;;;;;;4.85;0.88;;;13.80;67.90;;;;;;5051989;28;20609;-80
2022/02/07 01:11:55;;;;;;;3.75;1.00;;;13.80;68.00;;;;;;5051661;28;20375;-78
2022/02/07 01:14:49;;;;;;;4.68;1.13;;;13.70;68.10;;;;;;5052211;28;20043;-78
2022/02/07 01:52:45;;;;;;;4.78;0.85;;;13.40;68.90;;;;;;5052640;28;20029;-78
2022/02/07 01:55:32;;;;;;;7.28;1.67;;;13.40;68.90;;;;;;5015000;28;20029;-78
2022/02/07 01:58:02;;;;;;;6.18;0.88;;;13.30;68.80;;;;;;5032405;28;20124;-77
2022/02/07 02:00:27;;;;;;;7.47;1.30;;;13.30;69.00;;;;;;5032331;28;20025;-78
2022/02/07 02:02:53;;;;;;;15.27;1.73;;;13.30;68.90;;;;;;5015106;28;20025;-78
2022/02/07 02:05:18;;;;;;;7.97;1.17;;;13.30;69.00;;;;;;5032496;28;20025;-78
2022/02/07 02:07:44;;;;;;;8.10;1.10;;;13.30;69.10;;;;;;5014705;28;20116;-77
2022/02/07 02:10:11;;;;;;;3.58;0.75;;;13.30;69.10;;;;;;5014731;28;20115;-78
2022/02/07 02:12:53;;;;;;;5.05;1.10;;;13.20;69.10;;;;;;5032578;28;20445;-77
2022/02/07 02:35:16;;;;;;;4.25;0.90;;;13.10;69.50;;;;;;5052531;28;20185;-76
2022/02/07 02:47:29;;;;;;;5.18;1.10;;;12.90;69.10;;;;;;5056200;28;20556;-77
2022/02/07 02:50:08;;;;;;;4.63;1.25;;;12.90;69.20;;;;;;5037819;28;20071;-77
2022/02/07 02:52:34;;;;;;;4.20;1.15;;;12.90;69.00;;;;;;5037997;28;20060;-76
2022/02/07 02:55:00;;;;;;;3.92;0.80;;;12.90;69.10;;;;;;5038798;28;20052;-77
2022/02/07 02:57:25;;;;;;;5.25;0.90;;;12.90;69.10;;;;;;5054322;28;20040;-77
2022/02/07 02:59:51;;;;;;;4.05;1.08;;;12.90;69.30;;;;;;5054323;28;20079;-77
2022/02/07 03:02:16;;;;;;;3.92;0.93;;;12.90;69.30;;;;;;5055592;28;20029;-77
2022/02/07 03:04:42;;;;;;;3.40;0.90;;;12.90;69.20;;;;;;5037823;28;20021;-76
2022/02/07 03:07:07;;;;;;;4.00;0.88;;;12.90;69.20;;;;;;5055533;28;20040;-77
2022/02/07 03:09:33;;;;;;;6.10;1.20;;;12.90;69.50;;;;;;5055409;28;20078;-76
2022/02/07 03:11:58;;;;;;;3.45;0.85;;;12.80;69.30;;;;;;5055744;28;20060;-77
2022/02/07 03:14:36;;;;;;;5.80;1.00;;;12.80;69.30;;;;;;5037649;28;20498;-76
2022/02/07 03:17:01;;;;;;;5.05;1.30;;;12.80;69.30;;;;;;5037587;28;20029;-77
2022/02/07 03:19:27;;;;;;;4.90;1.20;;;12.80;69.40;;;;;;5037328;28;20029;-77
2022/02/07 03:21:52;;;;;;;4.15;1.10;;;12.80;69.50;;;;;;5055081;28;20017;-77
2022/02/07 03:24:18;;;;;;;4.15;0.98;;;12.80;69.50;;;;;;5048080;28;20070;-77
2022/02/07 03:26:45;;;;;;;5.05;1.08;;;12.70;69.50;;;;;;5053984;28;20035;-77
2022/02/07 03:29:12;;;;;;;4.50;1.20;;;12.70;69.60;;;;;;5055093;28;20107;-77
2022/02/07 03:31:38;;;;;;;7.25;1.30;;;12.70;69.60;;;;;;5055017;28;20070;-77
2022/02/07 03:34:04;;;;;;;7.50;1.10;;;12.70;69.50;;;;;;5054284;28;20512;-76
2022/02/07 03:36:31;;;;;;;6.32;1.30;;;12.70;69.60;;;;;;5053720;28;20040;-77
2022/02/07 03:38:58;;;;;;;4.25;0.95;;;12.70;69.60;;;;;;5055056;28;20072;-77
2022/02/07 03:41:24;;;;;;;8.40;1.45;;;12.70;69.60;;;;;;5047746;28;20021;-77
2022/02/07 03:43:50;;;;;;;19.30;1.83;;;12.70;69.60;;;;;;5052870;28;20441;-77
2022/02/07 03:46:16;;;;;;;12.75;1.80;;;12.70;69.50;;;;;;5036907;28;20490;-77
2022/02/07 03:48:42;;;;;;;8.50;1.23;;;12.70;69.60;;;;;;5054017;28;20036;-78
2022/02/07 03:51:08;;;;;;;11.18;1.70;;;12.60;69.50;;;;;;5037071;28;20067;-78
2022/02/07 03:53:33;;;;;;;6.45;1.27;;;12.60;69.50;;;;;;5055045;28;20021;-78
2022/02/07 03:55:59;;;;;;;7.25;1.20;;;12.60;69.60;;;;;;5054739;28;20406;-77
2022/02/07 03:58:24;;;;;;;7.57;1.60;;;12.60;69.50;;;;;;5053574;28;20025;-77
2022/02/07 04:00:53;;;;;;;10.25;1.30;;;12.60;69.40;;;;;;5053372;28;20039;-77
2022/02/07 04:03:21;;;;;;;6.15;1.17;;;12.60;69.60;;;;;;5053504;28;20021;-77
2022/02/07 04:05:52;;;;;;;8.00;1.25;;;12.60;69.60;;;;;;5053315;28;20028;-77
2022/02/07 04:08:19;;;;;;;6.85;1.20;;;12.60;69.50;;;;;;5053269;28;20024;-77
2022/02/07 04:11:13;;;;;;;6.78;1.13;;;12.60;69.50;;;;;;5054599;28;20021;-77
2022/02/07 04:13:33;;;;;;;4.60;0.90;;;12.60;69.50;;;;;;5053959;28;20037;-78
2022/02/07 04:16:01;;;;;;;5.80;1.25;;;12.60;69.60;;;;;;5054507;28;20092;-78
2022/02/07 04:18:31;;;;;;;6.53;1.58;;;12.60;69.60;;;;;;5053110;28;20548;-77
2022/02/07 04:20:57;;;;;;;10.27;1.60;;;12.50;69.50;;;;;;5052878;28;20124;-77
2022/02/07 04:23:22;;;;;;;12.45;1.83;;;12.50;69.60;;;;;;5053944;28;20048;-77
2022/02/07 04:25:48;;;;;;;8.68;1.50;;;12.50;69.60;;;;;;5036473;28;20103;-77
2022/02/07 04:28:14;;;;;;;6.13;1.30;;;12.50;69.50;;;;;;5036278;28;20032;-77
2022/02/07 04:30:40;;;;;;;6.60;1.20;;;12.50;69.60;;;;;;5050812;28;20128;-76
2022/02/07 04:33:05;;;;;;;8.23;1.60;;;12.50;69.60;;;;;;5036144;28;20028;-77
2022/02/07 04:35:31;;;;;;;8.48;1.40;;;12.50;69.60;;;;;;5036150;28;20117;-77
2022/02/07 04:37:57;;;;;;;6.25;1.52;;;12.50;69.60;;;;;;5054014;28;20102;-77
2022/02/07 04:40:23;;;;;;;6.25;1.10;;;12.50;69.60;;;;;;5053674;28;20052;-77
2022/02/07 04:42:49;;;;;;;4.55;1.10;;;12.50;69.50;;;;;;5053808;28;20576;-77
2022/02/07 04:50:44;;;;;;;5.30;1.10;;;12.50;69.60;;;;;;5053868;28;20043;-77
2022/02/07 04:53:16;;;;;;;7.75;1.52;;;12.40;69.50;;;;;;5037405;28;20066;-77
2022/02/07 04:55:51;;;;;;;4.57;1.10;;;12.40;69.50;;;;;;5052560;28;20124;-76
2022/02/07 05:01:09;;;;;;;4.95;1.27;;;12.40;69.60;;;;;;5052570;28;20021;-77
2022/02/07 05:03:45;;;;;;;6.22;1.30;;;12.40;69.70;;;;;;5037453;28;20048;-77
2022/02/07 05:14:23;;;;;;;4.45;0.95;;;12.40;69.80;;;;;;5053736;28;20036;-77
2022/02/07 05:16:52;;;;;;;8.25;1.50;;;12.40;69.70;;;;;;5035589;28;20021;-77
2022/02/07 05:19:18;;;;;;;5.85;1.10;;;12.40;69.80;;;;;;5035519;28;20035;-77
2022/02/07 05:21:44;;;;;;;9.43;1.55;;;12.30;69.80;;;;;;5035463;28;20111;-77
2022/02/07 05:24:10;;;;;;;5.82;1.52;;;12.40;69.80;;;;;;5035652;28;20553;-76
2022/02/07 05:26:35;;;;;;;7.75;1.42;;;12.40;69.80;;;;;;5035375;28;20059;-77
2022/02/07 05:29:02;;;;;;;5.85;1.17;;;12.40;69.80;;;;;;5033896;28;20028;-77
2022/02/07 05:31:28;;;;;;;5.45;1.48;;;12.40;69.90;;;;;;5032365;28;20029;-76
2022/02/07 05:33:54;;;;;;;7.95;1.33;;;12.30;69.90;;;;;;5034921;28;20035;-78
2022/02/07 05:36:20;;;;;;;7.22;1.55;;;12.30;70.00;;;;;;5035131;28;20036;-79
2022/02/07 05:38:49;;;;;;;5.80;1.20;;;12.30;70.00;;;;;;5034849;28;20029;-78
2022/02/07 05:41:16;;;;;;;5.25;1.30;;;12.30;70.00;;;;;;5031722;28;20444;-77
2022/02/07 05:43:46;;;;;;;8.38;1.40;;;12.30;70.10;;;;;;5031832;28;20029;-78
2022/02/07 05:46:12;;;;;;;6.57;1.23;;;12.30;70.60;;;;;;5051969;28;20028;-76
2022/02/07 05:48:38;;;;;;;5.32;1.20;;;12.30;70.60;;;;;;5051588;28;20029;-78
2022/02/07 05:51:04;;;;;;;6.40;1.77;;;12.30;70.00;;;;;;5041320;28;20032;-77
2022/02/07 05:53:30;;;;;;;11.05;1.80;;;12.20;70.10;;;;;;5033047;28;20066;-77
2022/02/07 05:55:55;;;;;;;9.38;1.70;;;12.20;70.10;;;;;;5033629;28;20124;-76
2022/02/07 05:58:21;;;;;;;8.68;1.50;;;12.20;70.10;;;;;;5033127;28;20021;-76
2022/02/07 06:00:46;;;;;;;9.93;1.58;;;12.20;70.10;;;;;;5050410;28;21059;-76
2022/02/07 06:03:12;;;;;;;8.23;1.55;;;12.20;70.10;;;;;;5045798;28;20449;-76
2022/02/07 06:05:37;;;;;;;7.15;1.30;;;12.20;70.10;;;;;;5032887;28;20033;-76
2022/02/07 06:08:03;;;;;;;6.47;1.45;;;12.20;70.20;;;;;;5033177;28;20032;-76
2022/02/07 06:10:29;;;;;;;7.57;1.40;;;12.20;70.10;;;;;;5032455;28;20029;-76
2022/02/07 06:12:54;;;;;;;6.88;1.60;;;12.20;70.10;;;;;;5032693;28;20025;-75
2022/02/07 06:15:20;;;;;;;9.32;1.48;;;12.20;70.10;;;;;;5032709;28;20541;-75
2022/02/07 06:17:52;;;;;;;7.50;1.52;;;12.20;70.20;;;;;;5032622;28;20103;-75
2022/02/07 06:20:18;;;;;;;8.88;1.40;;;12.20;70.10;;;;;;5032435;28;20509;-78
2022/02/07 06:22:45;;;;;;;7.65;1.58;;;12.20;70.80;;;;;;5031580;28;20029;-75
2022/02/07 06:25:11;;;;;;;8.68;1.60;;;12.10;70.30;;;;;;5030854;28;20402;-76
2022/02/07 06:27:36;;;;;;;11.40;1.92;;;12.20;70.30;;;;;;5030599;28;20029;-76
2022/02/07 06:30:03;;;;;;;7.97;1.70;;;12.20;70.30;;;;;;5030687;28;20140;-76
2022/02/07 06:32:28;;;;;;;12.27;1.98;;;12.20;70.30;;;;;;5041115;28;20402;-76
2022/02/07 06:34:54;;;;;;;15.98;2.72;;;12.20;70.10;;;;;;5047059;28;20036;-80
2022/02/07 06:37:20;;;;;;;18.70;3.05;;;12.10;68.80;;;;;;5048464;28;20029;-75
2022/02/07 06:39:45;;;;;;;21.88;2.40;;;12.10;68.20;;;;;;5042576;28;20087;-79
2022/02/07 06:42:11;;;;;;;19.00;2.17;;;12.10;67.70;;;;;;5048365;28;20025;-76
2022/02/07 06:44:36;;;;;;;17.60;2.20;;;12.10;67.40;;;;;;5048428;28;20075;-76
2022/02/07 06:47:02;;;;;;;13.60;2.00;;;12.10;67.30;;;;;;5030439;28;20030;-77
2022/02/07 06:49:28;;;;;;;8.70;1.52;;;12.00;67.10;;;;;;5029996;28;20799;-78
2022/02/07 06:51:53;;;;;;;12.15;2.17;;;12.10;67.90;;;;;;5046060;28;20040;-76
2022/02/07 06:54:19;;;;;;;15.13;2.33;;;12.00;68.40;;;;;;5045163;28;20037;-76
2022/02/07 06:56:45;;;;;;;9.52;1.80;;;12.10;68.70;;;;;;5048047;28;20029;-75
2022/02/07 06:59:15;;;;;;;11.10;1.77;;;12.00;68.90;;;;;;5048274;28;20021;-76
2022/02/07 07:01:41;;;;;;;12.82;2.17;;;12.10;69.20;;;;;;5047704;28;20070;-77
2022/02/07 07:04:07;;;;;;;9.75;1.50;;;12.10;69.20;;;;;;5047821;28;20033;-77
2022/02/07 07:06:33;;;;;;;20.23;3.05;;;12.10;69.30;;;;;;5031870;28;21012;-78
2022/02/07 07:08:58;;;;;;;12.38;2.65;;;12.10;68.70;;;;;;5030395;28;20029;-76
2022/02/07 07:11:27;;;;;;;12.15;2.40;;;12.10;69.40;;;;;;5056854;28;20120;-78
2022/02/07 07:13:57;;;;;;;11.43;1.88;;;12.10;69.50;;;;;;5060775;28;20399;-79
2022/02/07 07:18:52;;;;;;;10.20;2.30;;;12.10;69.60;;;;;;5053252;28;20032;-75
2022/02/07 07:21:18;;;;;;;8.52;2.05;;;12.10;69.50;;;;;;5051719;28;20103;-76
2022/02/07 07:23:44;;;;;;;13.35;1.70;;;12.10;69.60;;;;;;5051053;28;20170;-77
2022/02/07 07:26:09;;;;;;;12.02;2.17;;;12.10;69.60;;;;;;5046498;28;20116;-76
2022/02/07 07:28:38;;;;;;;16.33;2.17;;;12.00;69.50;;;;;;5057105;28;20028;-77
2022/02/07 07:31:06;;;;;;;9.10;1.90;;;12.00;69.80;;;;;;5074293;28;20020;-77
2022/02/07 07:33:33;;;;;;;11.60;1.73;;;12.10;69.80;;;;;;5074625;28;20017;-76
2022/02/07 07:35:59;;;;;;;9.32;1.77;;;12.00;69.80;;;;;;5074806;28;20028;-77
2022/02/07 07:38:25;;;;;;;8.95;1.88;;;12.00;69.70;;;;;;5056831;28;20398;-76
2022/02/07 07:40:51;;;;;;;8.35;2.00;;;12.10;69.70;;;;;;5056860;28;20115;-77
2022/02/07 07:43:16;;;;;;;12.68;2.15;;;12.10;69.50;;;;;;5057117;28;20433;-78
2022/02/07 07:45:48;;;;;;;6.15;1.50;;;12.10;69.30;;;;;;5057088;28;20017;-77
2022/02/07 07:48:21;;;;;;;6.40;1.83;;;12.10;69.20;;;;;;5074796;28;20177;-77
2022/02/07 07:53:25;;;;;;;8.13;1.40;;;12.10;69.00;;;;;;5074668;28;20029;-76
2022/02/07 08:01:43;;;;;;;10.50;1.83;;;12.30;68.80;;;;;;5074374;28;20031;-76
2022/02/07 08:04:12;;;;;;;8.95;1.80;;;12.30;68.60;;;;;;5074485;28;20017;-78
2022/02/07 08:06:44;;;;;;;6.05;1.40;;;12.30;68.40;;;;;;5074964;28;20024;-77
2022/02/07 08:11:40;;;;;;;7.30;1.70;;;12.40;68.10;;;;;;5074444;28;20028;-77
2022/02/07 08:14:06;;;;;;;7.25;1.40;;;12.40;68.00;;;;;;5056290;28;20016;-77
2022/02/07 08:16:32;;;;;;;5.80;1.30;;;12.40;68.00;;;;;;5056247;28;20437;-77
2022/02/07 08:19:02;;;;;;;7.15;1.92;;;12.40;67.90;;;;;;5074086;28;20032;-77
2022/02/07 08:21:28;;;;;;;7.18;1.60;;;12.40;67.70;;;;;;5055919;28;20486;-77
2022/02/07 08:23:53;;;;;;;8.05;1.50;;;12.50;67.60;;;;;;5056882;28;20115;-78
2022/02/07 08:26:19;;;;;;;6.38;1.30;;;12.50;67.60;;;;;;5056525;28;20163;-77
2022/02/07 08:28:45;;;;;;;9.63;1.85;;;12.60;67.70;;;;;;5056328;28;20078;-77
2022/02/07 08:31:12;;;;;;;6.35;1.50;;;12.60;67.50;;;;;;5056338;28;20032;-78
2022/02/07 08:33:37;;;;;;;5.18;1.52;;;12.60;67.60;;;;;;5056587;28;20032;-78
2022/02/07 08:36:05;;;;;;;5.88;1.23;;;12.60;67.40;;;;;;5055893;28;20030;-78
2022/02/07 08:38:32;;;;;;;5.55;1.20;;;12.60;67.40;;;;;;5055986;28;20436;-77
2022/02/07 08:40:57;;;;;;;6.13;1.35;;;12.60;67.10;;;;;;5056266;28;20410;-77
2022/02/07 08:43:23;;;;;;;6.22;1.67;;;12.70;67.10;;;;;;5056048;28;20031;-77
2022/02/07 08:45:48;;;;;;;5.60;1.30;;;12.70;67.00;;;;;;5056080;28;20017;-77
2022/02/07 08:48:14;;;;;;;6.47;1.42;;;12.70;67.00;;;;;;5073513;28;20032;-77
2022/02/07 08:50:40;;;;;;;4.78;1.40;;;12.70;67.10;;;;;;5055259;28;20036;-78
2022/02/07 08:53:06;;;;;;;5.30;1.50;;;12.70;67.10;;;;;;5055672;28;20554;-77
2022/02/07 08:55:35;;;;;;;5.40;1.33;;;12.70;67.20;;;;;;5073417;28;20393;-77
2022/02/07 08:58:15;;;;;;;6.40;1.42;;;12.60;67.20;;;;;;5055017;28;20043;-78
2022/02/07 09:06:31;;;;;;;7.75;1.83;;;12.70;66.90;;;;;;5073589;28;20025;-78
2022/02/07 09:08:50;;;;;;;7.82;2.05;;;12.70;66.80;;;;;;5058936;28;20480;-77
2022/02/07 09:11:16;;;;;;;7.03;1.50;;;12.70;66.50;;;;;;5072899;28;20031;-77
2022/02/07 09:13:44;;;;;;;8.52;2.20;;;12.70;66.50;;;;;;5073279;28;20039;-77
2022/02/07 09:18:39;;;;;;;7.25;1.90;;;12.80;66.50;;;;;;5073722;28;20028;-78
2022/02/07 09:21:06;;;;;;;8.25;2.00;;;12.80;66.40;;;;;;5054836;28;20025;-76
2022/02/07 09:23:34;;;;;;;7.53;1.73;;;12.80;66.40;;;;;;5055275;28;20025;-77
2022/02/07 09:25:59;;;;;;;8.52;1.88;;;12.80;66.30;;;;;;5055259;28;20024;-78
2022/02/07 09:28:25;;;;;;;9.07;2.42;;;12.90;66.10;;;;;;5055313;28;20026;-78
2022/02/07 09:30:52;;;;;;;5.88;1.85;;;12.80;66.10;;;;;;5073225;28;20067;-77
2022/02/07 09:33:19;;;;;;;7.25;1.90;;;12.80;66.70;;;;;;5055058;28;20119;-78
2022/02/07 09:35:45;;;;;;;8.98;2.13;;;12.80;66.90;;;;;;5054830;28;20031;-77
2022/02/07 09:38:11;;;;;;;8.25;2.03;;;12.90;66.80;;;;;;5054616;28;20468;-78
2022/02/07 09:40:38;;;;;;;9.15;2.00;;;12.90;66.90;;;;;;5054861;28;20528;-78
2022/02/07 09:43:05;;;;;;;7.72;1.80;;;12.90;66.80;;;;;;5073227;28;20017;-77
2022/02/07 09:45:38;;;;;;;9.05;2.30;;;12.90;67.50;;;;;;5072968;28;20073;-78
2022/02/07 09:48:06;;;;;;;8.00;1.90;;;12.90;66.80;;;;;;5054393;28;20031;-78
2022/02/07 09:50:32;;;;;;;8.23;2.28;;;12.90;66.80;;;;;;5054475;28;20051;-77
2022/02/07 09:52:59;;;;;;;13.55;2.33;;;12.90;66.80;;;;;;5054734;28;20017;-78
2022/02/07 09:55:25;;;;;;;8.70;2.00;;;12.90;66.70;;;;;;5054476;28;20036;-77
2022/02/07 09:57:53;;;;;;;9.20;2.15;;;12.90;66.70;;;;;;5072360;28;20032;-77
2022/02/07 10:00:30;;;;;;;10.50;2.10;;;13.00;66.50;;;;;;5072434;28;20021;-79
2022/02/07 10:03:19;;;;;;;10.05;2.22;;;13.00;66.50;;;;;;5072848;28;20367;-78
2022/02/07 10:14:05;;;;;;;10.35;2.58;;;13.00;65.70;;;;;;5061876;28;20719;-78
2022/02/07 10:50:25;;;;;;;11.48;2.55;;;13.10;65.50;;;;;;5046878;28;20032;-77
2022/02/07 10:52:56;;;;;;;10.38;2.63;;;13.10;65.50;;;;;;5031672;28;20388;-77
2022/02/07 10:55:30;;;;;;;11.55;2.53;;;13.10;65.30;;;;;;5025687;28;20028;-77
2022/02/07 10:58:00;;;;;;;10.95;2.70;;;13.10;65.50;;;;;;5052685;28;20291;-78
2022/02/07 11:00:32;;;;;;;13.13;2.40;;;13.10;65.40;;;;;;5037652;28;20028;-77
2022/02/07 11:03:05;;;;;;;11.98;3.00;;;13.10;65.60;;;;;;5037844;28;20112;-78
2022/02/07 11:05:39;;;;;;;10.30;2.40;;;13.10;65.90;;;;;;5037923;28;20028;-78
2022/02/07 11:08:22;;;;;;;12.30;2.53;;;13.00;66.00;;;;;;5038246;28;20017;-76
2022/02/07 11:16:26;;;;;;;12.25;2.65;;;13.00;66.20;;;;;;5056036;28;20060;-77
2022/02/07 11:19:31;;;;;;;10.48;2.75;;;13.00;66.40;;;;;;5037828;28;20029;-77
2022/02/07 11:22:23;;;;;;;11.40;2.70;;;13.00;66.50;;;;;;5055609;28;20032;-78
2022/02/07 11:25:18;;;;;;;12.15;2.80;;;12.90;66.60;;;;;;5037752;28;20028;-78
2022/02/07 11:27:54;;;;;;;10.88;2.40;;;12.90;66.60;;;;;;5037530;28;20490;-77
2022/02/07 11:30:53;;;;;;;12.30;3.10;;;12.80;66.80;;;;;;5037402;28;20017;-78
2022/02/07 11:33:39;;;;;;;10.27;2.40;;;12.80;67.10;;;;;;5055756;28;20108;-78
2022/02/07 11:36:19;;;;;;;11.52;2.50;;;12.70;67.50;;;;;;5037502;28;20029;-78
2022/02/07 11:39:14;;;;;;;11.88;2.40;;;12.60;67.40;;;;;;5037401;28;20129;-77
2022/02/07 11:41:55;;;;;;;10.02;2.33;;;12.60;67.30;;;;;;5037719;28;20493;-77
2022/02/07 11:44:53;;;;;;;12.38;3.10;;;12.70;67.40;;;;;;5055502;28;20017;-78
2022/02/07 11:47:25;;;;;;;11.07;2.30;;;12.60;67.50;;;;;;5055213;28;20025;-78
2022/02/07 11:49:54;;;;;;;13.80;2.92;;;12.60;67.70;;;;;;5055280;28;20035;-77
2022/02/07 11:52:29;;;;;;;12.98;2.97;;;12.60;67.40;;;;;;5037509;28;20029;-78
2022/02/07 11:54:56;;;;;;;11.05;2.40;;;12.60;67.60;;;;;;5036585;28;20029;-78
2022/02/07 11:57:23;;;;;;;13.15;2.75;;;12.60;67.60;;;;;;5054917;28;20033;-77
2022/02/07 11:59:59;;;;;;;8.55;2.30;;;12.50;67.90;;;;;;5036794;28;20330;-77
2022/02/07 12:02:36;;;;;;;13.00;2.78;;;12.50;67.90;;;;;;5036640;28;20108;-77
2022/02/07 12:05:07;;;;;;;12.82;3.22;;;12.50;67.80;;;;;;5036851;28;20021;-78
2022/02/07 12:07:37;;;;;;;10.55;2.55;;;12.50;67.60;;;;;;5054826;28;20032;-77
2022/02/07 12:13:01;;;;;;;15.50;2.92;;;12.50;67.80;;;;;;5054798;28;20479;-77
2022/02/07 12:15:38;;;;;;;13.65;2.72;;;12.40;67.80;;;;;;5036478;28;20103;-78
2022/02/07 12:18:12;;;;;;;11.93;2.95;;;12.40;67.80;;;;;;5036904;28;20087;-78
2022/02/07 12:20:40;;;;;;;11.88;2.30;;;12.40;67.70;;;;;;5053865;28;20025;-78
2022/02/07 12:23:10;;;;;;;10.95;2.40;;;12.40;67.80;;;;;;5036405;28;20028;-77
2022/02/07 12:25:42;;;;;;;10.68;2.50;;;12.30;68.00;;;;;;5036159;28;20031;-77
2022/02/07 12:28:17;;;;;;;10.75;2.33;;;12.30;68.00;;;;;;5054217;28;20017;-78
2022/02/07 12:30:48;;;;;;;10.00;2.42;;;12.30;68.00;;;;;;5053822;28;20021;-77
2022/02/07 12:33:16;;;;;;;10.70;2.97;;;12.30;68.10;;;;;;5036240;28;20017;-78
2022/02/07 12:35:46;;;;;;;12.40;2.65;;;12.30;68.00;;;;;;5053714;28;20032;-77
2022/02/07 12:38:12;;;;;;;9.32;2.50;;;12.30;68.00;;;;;;5053873;28;20390;-77
2022/02/07 12:40:42;;;;;;;10.73;2.50;;;12.30;67.70;;;;;;5035659;28;20440;-78
2022/02/07 12:43:12;;;;;;;11.05;2.50;;;12.20;67.80;;;;;;5054094;28;20036;-78
2022/02/07 12:45:40;;;;;;;11.23;2.53;;;12.20;67.80;;;;;;5036084;28;20394;-78
2022/02/07 12:48:12;;;;;;;12.13;2.50;;;12.20;67.80;;;;;;5053819;28;20044;-77
2022/02/07 12:50:47;;;;;;;9.68;2.30;;;12.20;67.60;;;;;;5033798;28;20021;-78
2022/02/07 12:53:16;;;;;;;12.38;3.33;;;12.20;67.70;;;;;;5053610;28;20036;-78
2022/02/07 12:55:45;;;;;;;10.23;2.47;;;12.20;67.50;;;;;;5053181;28;20028;-78
2022/02/07 12:58:12;;;;;;;10.07;2.20;;;12.30;67.50;;;;;;5053221;28;20037;-78
2022/02/07 13:00:38;;;;;;;9.93;1.98;;;12.30;67.20;;;;;;5035202;28;20113;-77
2022/02/07 13:03:04;;;;;;;10.55;1.90;;;12.30;67.20;;;;;;5053643;28;20053;-77
2022/02/07 13:05:30;;;;;;;10.43;2.40;;;12.30;67.40;;;;;;5035654;28;20024;-77
2022/02/07 13:07:57;;;;;;;10.15;2.38;;;12.30;67.40;;;;;;5052378;28;20102;-77
2022/02/07 13:10:25;;;;;;;9.82;2.58;;;12.30;67.50;;;;;;5052841;28;20440;-77
2022/02/07 13:13:21;;;;;;;10.13;2.42;;;12.30;67.50;;;;;;5035299;28;20021;-77
2022/02/07 13:15:39;;;;;;;7.90;1.90;;;12.20;67.60;;;;;;5051749;28;20071;-78
2022/02/07 13:18:10;;;;;;;10.45;1.98;;;12.30;67.70;;;;;;5060169;22;20020;-79
2022/02/07 13:20:37;;;;;;;10.20;2.05;;;12.20;67.60;;;;;;5053994;28;20055;-79
2022/02/07 13:23:10;;;;;;;9.80;2.25;;;12.20;67.70;;;;;;5054013;28;20027;-80
2022/02/07 13:25:52;;;;;;;8.82;1.88;;;12.20;67.70;;;;;;5054641;28;20044;-80
2022/02/07 13:28:24;;;;;;;9.73;2.20;;;12.30;67.70;;;;;;5054593;28;20024;-80
2022/02/07 13:31:00;;;;;;;8.20;2.10;;;12.20;67.60;;;;;;5054393;28;20432;-80
2022/02/07 13:33:26;;;;;;;8.32;1.88;;;12.30;67.90;;;;;;5072426;28;20119;-80
2022/02/07 13:35:58;;;;;;;9.77;2.00;;;12.30;67.80;;;;;;5054595;28;20115;-80
2022/02/07 13:38:24;;;;;;;10.05;2.40;;;12.30;67.90;;;;;;5054509;28;20505;-80
2022/02/07 13:40:52;;;;;;;9.18;2.30;;;12.30;68.00;;;;;;5054070;28;20036;-80
2022/02/07 13:43:25;;;;;;;9.98;2.13;;;12.30;68.00;;;;;;5054382;28;20020;-79
2022/02/07 13:45:53;;;;;;;7.32;1.95;;;12.20;68.00;;;;;;5054552;28;20013;-80
2022/02/07 13:48:22;;;;;;;9.98;2.30;;;12.20;67.90;;;;;;5054216;28;20107;-80
2022/02/07 13:50:50;;;;;;;9.48;2.10;;;12.20;68.10;;;;;;5054157;28;20459;-80
2022/02/07 13:53:18;;;;;;;11.30;2.30;;;12.20;68.70;;;;;;5072043;28;20486;-80
2022/02/07 13:55:49;;;;;;;10.05;1.77;;;12.20;68.30;;;;;;5053823;28;20512;-80
2022/02/07 13:58:14;;;;;;;11.77;2.58;;;12.10;68.10;;;;;;5054036;28;20119;-79
2022/02/07 14:00:47;;;;;;;9.13;1.80;;;12.10;68.20;;;;;;5053888;28;20447;-79
2022/02/07 14:03:15;;;;;;;9.50;2.03;;;12.20;68.10;;;;;;5072341;28;20021;-79
2022/02/07 14:05:58;;;;;;;9.15;2.05;;;12.10;68.00;;;;;;5072114;28;20069;-78
2022/02/07 14:08:33;;;;;;;9.23;2.10;;;12.10;68.10;;;;;;5054049;28;20028;-79
2022/02/07 14:10:59;;;;;;;9.88;2.10;;;12.20;68.20;;;;;;5053701;28;20108;-79
2022/02/07 14:13:25;;;;;;;9.82;2.20;;;12.10;68.30;;;;;;5054012;28;20454;-79
2022/02/07 14:15:50;;;;;;;8.50;1.98;;;12.10;68.30;;;;;;5054166;28;20421;-79
2022/02/07 14:18:18;;;;;;;9.98;2.20;;;12.10;68.40;;;;;;5053789;28;20036;-79
2022/02/07 14:20:46;;;;;;;9.13;1.80;;;12.10;68.40;;;;;;5053837;28;20098;-79
2022/02/07 14:23:13;;;;;;;11.10;1.98;;;12.00;68.40;;;;;;5053924;28;20025;-79
2022/02/07 14:25:41;;;;;;;8.07;1.92;;;12.00;68.50;;;;;;5071872;28;20025;-79
2022/02/07 14:28:07;;;;;;;9.30;2.20;;;12.00;68.50;;;;;;5053738;28;20020;-79
2022/02/07 14:30:33;;;;;;;8.75;1.70;;;12.00;68.60;;;;;;5053881;28;20043;-80
2022/02/07 14:33:01;;;;;;;8.00;2.35;;;12.00;68.50;;;;;;5055000;28;20024;-79
2022/02/07 14:35:28;;;;;;;9.02;2.13;;;12.00;68.50;;;;;;5075800;28;20023;-79
2022/02/07 14:37:56;;;;;;;8.20;2.13;;;12.00;68.60;;;;;;5057792;28;20111;-78
2022/02/07 14:40:22;;;;;;;7.88;1.88;;;12.00;68.60;;;;;;5057759;28;20183;-79
2022/02/07 14:42:48;;;;;;;9.18;2.00;;;11.90;68.60;;;;;;5075729;28;20552;-79
2022/02/07 14:45:15;;;;;;;8.45;1.80;;;12.00;68.60;;;;;;5057883;28;20060;-78
2022/02/07 14:50:13;;;;;;;7.18;1.88;;;11.90;68.60;;;;;;5075486;28;20029;-79
2022/02/07 14:52:39;;;;;;;10.45;2.17;;;11.90;68.70;;;;;;5057534;28;20425;-78
2022/02/07 14:55:06;;;;;;;7.43;1.80;;;11.90;68.70;;;;;;5057379;28;20025;-79
2022/02/07 14:57:31;;;;;;;8.90;2.13;;;11.90;68.70;;;;;;5057446;28;20123;-79
2022/02/07 14:59:57;;;;;;;7.50;1.80;;;11.90;68.80;;;;;;5057181;28;20108;-79
2022/02/07 15:02:23;;;;;;;7.80;1.95;;;11.90;68.90;;;;;;5057332;28;20474;-78
2022/02/07 15:04:52;;;;;;;8.35;2.10;;;11.90;69.00;;;;;;5057237;28;20020;-79
2022/02/07 15:07:18;;;;;;;9.20;2.10;;;11.90;69.10;;;;;;5057535;28;20024;-79
2022/02/07 15:09:43;;;;;;;10.15;2.67;;;11.90;69.10;;;;;;5057043;28;20058;-78
2022/02/07 15:12:09;;;;;;;9.48;2.33;;;11.90;69.00;;;;;;5057183;28;20119;-79
2022/02/07 15:14:35;;;;;;;9.68;2.00;;;11.90;69.10;;;;;;5057360;28;20108;-79
2022/02/07 15:17:04;;;;;;;8.50;2.25;;;11.90;69.20;;;;;;5057253;28;20021;-79
2022/02/07 15:19:30;;;;;;;7.57;1.90;;;11.90;69.20;;;;;;5056940;28;20654;-78
2022/02/07 15:21:56;;;;;;;9.68;2.10;;;11.80;69.10;;;;;;5073486;28;20020;-77
2022/02/07 15:24:24;;;;;;;8.07;2.30;;;11.80;69.10;;;;;;5054574;28;20016;-77
2022/02/07 15:26:49;;;;;;;10.43;2.10;;;11.80;69.00;;;;;;5096442;28;20099;-76